createdAt,value
2023-04-28T00:01:12.711Z,48.91
2023-04-28T00:03:39.453Z,48.30
2023-04-28T00:06:06.254Z,48.11
2023-04-28T00:08:32.899Z,48.35
2023-04-28T00:10:59.585Z,48.39
2023-04-28T00:13:26.146Z,48.62
2023-04-28T00:15:52.769Z,48.39
2023-04-28T00:18:19.456Z,48.47
2023-04-28T00:20:46.104Z,49.31
2023-04-28T00:23:12.679Z,48.30
2023-04-28T00:25:39.254Z,48.36
2023-04-28T00:28:05.910Z,48.64
2023-04-28T00:30:32.483Z,49.22
2023-04-28T00:32:59.073Z,48.53
2023-04-28T00:35:25.718Z,49.55
2023-04-28T00:37:52.350Z,49.19
2023-04-28T00:40:18.954Z,49.44
2023-04-28T00:42:45.588Z,49.88
2023-04-28T00:45:12.187Z,49.49
2023-04-28T00:47:38.812Z,50.26
2023-04-28T00:50:05.462Z,50.15
2023-04-28T00:52:32.033Z,50.13
2023-04-28T00:54:58.642Z,50.29
2023-04-28T00:57:25.279Z,50.38
2023-04-28T00:59:51.846Z,50.55
2023-04-28T01:02:18.574Z,50.97
2023-04-28T01:04:45.253Z,50.99
2023-04-28T01:07:11.835Z,50.88
2023-04-28T01:09:38.414Z,51.07
2023-04-28T01:12:05.479Z,51.28
2023-04-28T01:14:32.063Z,51.77
2023-04-28T01:16:58.828Z,51.79
2023-04-28T01:19:25.506Z,52.60
2023-04-28T01:21:52.518Z,52.19
2023-04-28T01:24:19.473Z,52.17
2023-04-28T01:26:46.246Z,52.85
2023-04-28T01:29:12.948Z,52.75
2023-04-28T01:31:39.688Z,53.71
2023-04-28T01:34:06.311Z,53.41
2023-04-28T01:36:33.754Z,53.29
2023-04-28T01:39:01.384Z,52.82
2023-04-28T01:41:27.977Z,52.80
2023-04-28T01:43:54.572Z,53.05
2023-04-28T01:46:21.219Z,53.14
2023-04-28T01:48:47.955Z,53.93
2023-04-28T01:51:14.545Z,53.71
2023-04-28T01:53:41.108Z,54.10
2023-04-28T01:56:10.007Z,54.49
2023-04-28T01:58:36.624Z,54.68
2023-04-28T02:01:03.219Z,54.05
2023-04-28T02:03:30.010Z,54.73
2023-04-28T02:05:56.666Z,55.54
2023-04-28T02:08:23.247Z,55.29
2023-04-28T02:10:49.884Z,55.44
2023-04-28T02:13:16.445Z,55.03
2023-04-28T02:15:43.105Z,54.48
2023-04-28T02:18:09.826Z,54.00
2023-04-28T02:20:36.391Z,54.85
2023-04-28T02:23:02.969Z,55.33
2023-04-28T02:25:29.539Z,54.99
2023-04-28T02:27:56.917Z,55.17
2023-04-28T02:30:23.515Z,55.54
2023-04-28T02:32:50.132Z,55.63
2023-04-28T02:35:16.968Z,55.03
2023-04-28T02:37:43.545Z,55.26
2023-04-28T02:40:10.146Z,56.21
2023-04-28T02:42:36.717Z,55.84
2023-04-28T02:45:03.307Z,55.04
2023-04-28T02:47:29.949Z,55.16
2023-04-28T02:49:56.754Z,55.84
2023-04-28T02:52:23.413Z,55.57
2023-04-28T02:54:49.995Z,55.12
2023-04-28T02:57:16.603Z,54.90
2023-04-28T02:59:43.196Z,54.64
2023-04-28T03:02:09.980Z,54.95
2023-04-28T03:04:36.774Z,54.56
2023-04-28T03:07:03.382Z,54.68
2023-04-28T03:09:29.958Z,54.58
2023-04-28T03:11:56.570Z,56.10
2023-04-28T03:14:23.144Z,56.23
2023-04-28T03:16:49.908Z,56.59
2023-04-28T03:19:16.737Z,56.69
2023-04-28T03:21:43.384Z,56.65
2023-04-28T03:24:09.984Z,56.80
2023-04-28T03:26:36.601Z,56.53
2023-04-28T03:29:04.348Z,56.94
2023-04-28T03:31:30.954Z,56.81
2023-04-28T03:33:57.572Z,56.74
2023-04-28T03:36:24.158Z,56.39
2023-04-28T03:38:50.776Z,55.83
2023-04-28T03:41:17.388Z,56.10
2023-04-28T03:43:44.062Z,56.02
2023-04-28T03:46:10.681Z,56.04
2023-04-28T03:48:37.398Z,55.54
2023-04-28T03:51:03.994Z,55.51
2023-04-28T03:53:30.556Z,56.02
2023-04-28T03:55:57.152Z,55.43
2023-04-28T03:58:23.744Z,55.60
2023-04-28T04:00:50.358Z,56.30
2023-04-28T04:03:17.089Z,56.68
2023-04-28T04:05:44.056Z,57.75
2023-04-28T04:08:10.763Z,56.90
2023-04-28T04:10:38.372Z,57.59
2023-04-28T04:13:04.973Z,57.22
2023-04-28T04:15:31.744Z,57.21
2023-04-28T04:17:58.495Z,57.43
2023-04-28T04:20:25.100Z,56.94
2023-04-28T04:22:51.760Z,56.64
2023-04-28T04:25:18.361Z,56.49
2023-04-28T04:27:45.281Z,56.53
2023-04-28T04:30:11.867Z,56.70
2023-04-28T04:32:38.574Z,56.45
2023-04-28T04:35:05.215Z,55.81
2023-04-28T04:37:31.823Z,56.35
2023-04-28T04:39:58.404Z,56.17
2023-04-28T04:42:26.011Z,55.89
2023-04-28T04:44:52.777Z,55.65
2023-04-28T04:47:19.522Z,55.67
2023-04-28T04:49:46.117Z,55.48
2023-04-28T04:52:12.721Z,54.54
2023-04-28T04:54:39.452Z,54.73
2023-04-28T04:57:06.045Z,54.74
2023-04-28T04:59:32.714Z,54.93
2023-04-28T05:01:59.451Z,54.79
2023-04-28T05:04:26.260Z,53.90
2023-04-28T05:06:53.017Z,53.74
2023-04-28T05:09:19.681Z,53.22
2023-04-28T05:11:46.281Z,53.77
2023-04-28T05:14:12.852Z,53.07
2023-04-28T05:16:39.513Z,53.99
2023-04-28T05:19:06.275Z,54.47
2023-04-28T05:21:32.986Z,54.04
2023-04-28T05:23:59.562Z,54.58
2023-04-28T05:26:26.193Z,53.97
2023-04-28T05:28:52.804Z,54.27
2023-04-28T05:31:19.584Z,54.16
2023-04-28T05:33:46.226Z,54.17
2023-04-28T05:36:12.953Z,54.16
2023-04-28T05:38:39.566Z,53.79
2023-04-28T05:41:06.148Z,53.70
2023-04-28T05:43:32.732Z,53.34
2023-04-28T05:45:59.737Z,53.69
2023-04-28T05:48:26.377Z,52.58
2023-04-28T05:50:52.968Z,52.47
2023-04-28T05:53:19.565Z,52.47
2023-04-28T05:55:46.153Z,52.20
2023-04-28T05:58:12.781Z,52.38
2023-04-28T06:00:39.387Z,52.37
2023-04-28T06:03:06.154Z,51.99
2023-04-28T06:05:33.202Z,52.23
2023-04-28T06:07:59.997Z,51.89
2023-04-28T06:10:26.610Z,51.70
2023-04-28T06:12:53.230Z,51.60
2023-04-28T06:15:19.805Z,51.53
2023-04-28T06:17:49.087Z,51.84
2023-04-28T06:20:15.709Z,51.20
2023-04-28T06:22:42.300Z,51.74
2023-04-28T06:25:08.895Z,51.95
2023-04-28T06:27:35.709Z,51.75
2023-04-28T06:30:02.805Z,51.35
2023-04-28T06:32:29.564Z,50.51
2023-04-28T06:34:57.874Z,50.54
2023-04-28T06:37:25.110Z,51.32
2023-04-28T06:39:51.724Z,50.08
2023-04-28T06:42:18.325Z,50.48
2023-04-28T06:44:44.914Z,50.53
2023-04-28T06:47:11.489Z,49.59
2023-04-28T06:49:38.095Z,49.55
2023-04-28T06:52:04.770Z,49.75
2023-04-28T06:54:31.466Z,49.54
2023-04-28T06:56:58.176Z,49.38
2023-04-28T06:59:25.473Z,48.84
2023-04-28T07:01:52.198Z,48.83
2023-04-28T07:04:18.987Z,48.34
2023-04-28T07:06:45.845Z,48.66
2023-04-28T07:09:12.432Z,49.21
2023-04-28T07:11:39.028Z,48.77
2023-04-28T07:14:05.625Z,48.44
2023-04-28T07:16:32.282Z,48.71
2023-04-28T07:18:58.955Z,49.03
2023-04-28T07:21:25.555Z,48.93
2023-04-28T07:23:52.494Z,49.04
2023-04-28T07:26:19.098Z,47.89
2023-04-28T07:28:45.683Z,47.99
2023-04-28T07:31:12.247Z,47.93
2023-04-28T07:33:38.853Z,47.35
2023-04-28T07:36:05.474Z,46.27
2023-04-28T07:38:32.071Z,46.65
2023-04-28T07:40:58.695Z,46.11
2023-04-28T07:43:25.336Z,46.59
2023-04-28T07:45:52.017Z,45.75
2023-04-28T07:48:18.812Z,45.99
2023-04-28T07:50:45.460Z,45.60
2023-04-28T07:53:12.102Z,45.53
2023-04-28T07:55:38.736Z,46.54
2023-04-28T07:58:07.010Z,45.79
2023-04-28T08:00:33.609Z,45.90
2023-04-28T08:03:00.285Z,46.39
2023-04-28T08:05:27.043Z,45.73
2023-04-28T08:07:53.824Z,45.65
2023-04-28T08:10:20.387Z,45.57
2023-04-28T08:12:47.143Z,45.99
2023-04-28T08:15:13.732Z,45.51
2023-04-28T08:17:40.778Z,44.66
2023-04-28T08:20:07.853Z,46.01
2023-04-28T08:22:34.608Z,45.65
2023-04-28T08:25:01.170Z,45.41
2023-04-28T08:27:27.764Z,45.63
2023-04-28T08:29:54.454Z,45.90
2023-04-28T08:32:21.074Z,45.68
2023-04-28T08:34:47.689Z,46.53
2023-04-28T08:37:14.259Z,46.90
2023-04-28T08:39:40.816Z,47.24
2023-04-28T08:42:07.438Z,46.78
2023-04-28T08:44:34.221Z,46.92
2023-04-28T08:47:00.863Z,47.03
2023-04-28T08:49:27.438Z,46.73
2023-04-28T08:51:54.421Z,46.83
2023-04-28T08:54:26.639Z,47.30
2023-04-28T08:56:53.585Z,47.80
2023-04-28T08:59:20.346Z,48.21
2023-04-28T09:01:47.013Z,48.21
2023-04-28T09:04:14.844Z,48.70
2023-04-28T09:06:42.062Z,48.95
2023-04-28T09:09:08.757Z,48.18
2023-04-28T09:11:35.330Z,48.58
2023-04-28T09:14:01.968Z,48.21
2023-04-28T09:16:28.672Z,47.94
2023-04-28T09:18:55.310Z,48.04
2023-04-28T09:21:21.902Z,48.78
2023-04-28T09:23:48.545Z,47.94
2023-04-28T09:26:15.181Z,47.08
2023-04-28T09:28:41.783Z,47.17
2023-04-28T09:31:08.388Z,48.03
2023-04-28T09:33:35.037Z,47.12
2023-04-28T09:36:01.617Z,47.56
2023-04-28T09:38:28.223Z,46.81
2023-04-28T09:40:54.875Z,46.26
2023-04-28T09:43:22.166Z,45.97
2023-04-28T09:45:48.874Z,45.58
2023-04-28T09:48:16.006Z,44.62
2023-04-28T09:50:42.690Z,45.45
2023-04-28T09:53:09.353Z,45.08
2023-04-28T09:55:35.947Z,44.90
2023-04-28T09:58:02.556Z,44.74
2023-04-28T10:00:29.181Z,43.93
2023-04-28T10:02:55.951Z,44.07
2023-04-28T10:05:22.854Z,43.86
2023-04-28T10:07:49.900Z,43.43
2023-04-28T10:10:16.475Z,44.14
2023-04-28T10:12:43.076Z,43.83
2023-04-28T10:15:09.677Z,43.25
2023-04-28T10:17:36.395Z,43.47
2023-04-28T10:20:02.999Z,43.11
2023-04-28T10:22:29.625Z,43.36
2023-04-28T10:24:56.185Z,43.65
2023-04-28T10:27:22.781Z,42.53
2023-04-28T10:29:49.370Z,42.50
2023-04-28T10:32:15.957Z,42.24
2023-04-28T10:34:42.545Z,43.60
2023-04-28T10:37:09.105Z,42.80
2023-04-28T10:39:35.696Z,45.41
2023-04-28T10:42:02.260Z,45.04
2023-04-28T10:44:28.864Z,42.87
2023-04-28T10:46:55.588Z,42.32
2023-04-28T10:49:22.263Z,43.15
2023-04-28T10:51:48.901Z,42.27
2023-04-28T10:54:15.550Z,42.53
2023-04-28T10:56:42.187Z,43.94
2023-04-28T10:59:08.776Z,44.69
2023-04-28T11:01:36.276Z,43.24
2023-04-28T11:04:03.348Z,43.14
2023-04-28T11:06:30.206Z,42.11
2023-04-28T11:08:56.850Z,41.97
2023-04-28T11:11:23.447Z,41.25
2023-04-28T11:13:50.286Z,41.53
2023-04-28T11:16:16.910Z,41.72
2023-04-28T11:18:43.550Z,41.57
2023-04-28T11:21:10.127Z,40.47
2023-04-28T11:23:36.734Z,40.57
2023-04-28T11:26:03.861Z,39.84
2023-04-28T11:28:30.444Z,38.89
2023-04-28T11:30:57.138Z,41.21
2023-04-28T11:33:23.732Z,40.35
2023-04-28T11:35:50.357Z,40.60
2023-04-28T11:38:16.982Z,40.98
2023-04-28T11:40:43.594Z,40.02
2023-04-28T11:43:10.230Z,39.15
2023-04-28T11:45:36.921Z,39.01
2023-04-28T11:48:03.591Z,39.52
2023-04-28T11:50:30.240Z,40.70
2023-04-28T11:52:56.812Z,39.99
2023-04-28T11:55:23.609Z,39.28
2023-04-28T11:57:50.179Z,39.38
2023-04-28T12:00:16.748Z,39.55
2023-04-28T12:02:43.521Z,40.13
2023-04-28T12:05:10.315Z,39.01
2023-04-28T12:07:36.975Z,38.12
2023-04-28T12:10:03.896Z,40.01
2023-04-28T12:12:45.044Z,40.20
2023-04-28T12:15:18.180Z,38.52
2023-04-28T12:17:46.765Z,39.49
2023-04-28T12:20:13.354Z,40.74
2023-04-28T12:22:39.968Z,39.36
2023-04-28T12:25:06.539Z,39.79
2023-04-28T12:27:33.154Z,40.70
2023-04-28T12:29:59.749Z,40.15
2023-04-28T12:32:26.354Z,40.53
2023-04-28T12:34:53.126Z,40.45
2023-04-28T12:37:19.758Z,42.04
2023-04-28T12:39:46.604Z,40.63
2023-04-28T12:42:13.452Z,40.30
2023-04-28T12:44:42.431Z,40.40
2023-04-28T12:47:09.071Z,40.49
2023-04-28T12:49:35.725Z,41.95
2023-04-28T12:52:02.325Z,42.43
2023-04-28T12:54:28.920Z,42.18
2023-04-28T12:56:55.547Z,40.16
2023-04-28T12:59:22.121Z,41.08
2023-04-28T13:01:48.778Z,41.67
2023-04-28T13:04:15.684Z,42.16
2023-04-28T13:06:42.372Z,43.36
2023-04-28T13:09:09.290Z,42.71
2023-04-28T13:11:35.878Z,43.45
2023-04-28T13:14:02.791Z,41.36
2023-04-28T13:16:29.425Z,41.06
2023-04-28T13:18:56.427Z,41.03
2023-04-28T13:21:23.050Z,40.46
2023-04-28T13:23:49.799Z,41.31
2023-04-28T13:26:16.430Z,41.28
2023-04-28T13:28:43.023Z,40.71
2023-04-28T13:31:09.708Z,41.40
2023-04-28T13:33:36.299Z,40.98
2023-04-28T13:36:02.903Z,40.68
2023-04-28T13:38:29.723Z,40.00
2023-04-28T13:40:56.715Z,39.65
2023-04-28T13:43:23.532Z,39.87
2023-04-28T13:45:50.135Z,39.82
2023-04-28T13:48:17.046Z,39.57
2023-04-28T13:50:43.650Z,41.48
2023-04-28T13:53:10.206Z,41.75
2023-04-28T13:55:36.909Z,40.93
2023-04-28T13:58:03.557Z,41.38
2023-04-28T14:00:30.184Z,40.94
2023-04-28T14:02:57.062Z,42.72
2023-04-28T14:05:23.767Z,43.95
2023-04-28T14:07:50.347Z,44.21
2023-04-28T14:10:16.957Z,42.40
2023-04-28T14:12:43.662Z,43.24
2023-04-28T14:15:10.309Z,42.94
2023-04-28T14:17:36.929Z,42.87
2023-04-28T14:20:03.640Z,42.50
2023-04-28T14:22:30.290Z,42.46
2023-04-28T14:24:56.899Z,43.22
2023-04-28T14:27:23.471Z,42.84
2023-04-28T14:29:50.202Z,43.32
2023-04-28T14:32:16.983Z,43.64
2023-04-28T14:34:43.586Z,43.35
2023-04-28T14:37:10.340Z,42.84
2023-04-28T14:39:36.991Z,43.29
2023-04-28T14:42:03.589Z,44.30
2023-04-28T14:44:30.165Z,44.58
2023-04-28T14:46:56.784Z,44.86
2023-04-28T14:49:23.425Z,45.27
2023-04-28T14:51:50.060Z,45.42
2023-04-28T14:54:16.644Z,45.53
2023-04-28T14:56:43.223Z,46.64
2023-04-28T14:59:10.102Z,47.27
2023-04-28T15:01:36.825Z,47.56
2023-04-28T15:04:03.660Z,47.55
2023-04-28T15:06:30.498Z,47.84
2023-04-28T15:08:57.112Z,47.81
2023-04-28T15:11:23.681Z,47.65
2023-04-28T15:13:50.343Z,47.71
2023-04-28T15:16:16.975Z,48.22
2023-04-28T15:18:43.568Z,48.79
2023-04-28T15:21:10.249Z,49.36
2023-04-28T15:23:36.822Z,49.09
2023-04-28T15:26:03.441Z,51.25
2023-04-28T15:28:30.061Z,51.62
2023-04-28T15:30:56.669Z,53.01
2023-04-28T15:33:23.260Z,51.32
2023-04-28T15:35:49.874Z,51.77
2023-04-28T15:38:16.546Z,51.13
2023-04-28T15:40:43.142Z,50.97
2023-04-28T15:43:09.708Z,51.23
2023-04-28T15:45:36.351Z,51.53
2023-04-28T15:48:03.369Z,52.46
2023-04-28T15:50:29.990Z,53.36
2023-04-28T15:52:56.698Z,53.83
2023-04-28T15:55:23.292Z,53.65
2023-04-28T15:57:49.913Z,53.69
2023-04-28T16:00:16.562Z,52.96
2023-04-28T16:02:43.451Z,52.54
2023-04-28T16:05:10.355Z,52.39
2023-04-28T16:07:36.975Z,52.33
2023-04-28T16:10:04.204Z,51.41
2023-04-28T16:12:31.665Z,52.24
2023-04-28T16:14:58.238Z,52.47
2023-04-28T16:17:25.017Z,52.24
2023-04-28T16:19:51.579Z,52.94
2023-04-28T16:22:18.374Z,54.39
2023-04-28T16:24:44.959Z,55.31
2023-04-28T16:27:11.610Z,55.08
2023-04-28T16:29:38.179Z,55.49
2023-04-28T16:32:04.842Z,55.06
2023-04-28T16:34:31.416Z,54.72
2023-04-28T16:36:58.005Z,55.02
2023-04-28T16:39:24.595Z,54.89
2023-04-28T16:41:51.168Z,55.10
2023-04-28T16:44:17.790Z,55.31
2023-04-28T16:46:44.367Z,55.04
2023-04-28T16:49:10.990Z,54.76
2023-04-28T16:51:37.588Z,55.12
2023-04-28T16:54:04.188Z,55.13
2023-04-28T16:56:30.842Z,54.94
2023-04-28T16:58:57.458Z,55.08
2023-04-28T17:01:24.091Z,56.36
2023-04-28T17:03:50.993Z,56.40
2023-04-28T17:06:17.756Z,56.21
2023-04-28T17:08:44.414Z,56.04
2023-04-28T17:11:11.041Z,56.50
2023-04-28T17:13:37.633Z,55.78
2023-04-28T17:16:04.329Z,56.57
2023-04-28T17:18:30.959Z,56.38
2023-04-28T17:20:57.623Z,56.29
2023-04-28T17:23:24.260Z,56.07
2023-04-28T17:25:50.845Z,56.11
2023-04-28T17:28:17.900Z,56.32
2023-04-28T17:30:47.459Z,57.07
2023-04-28T17:33:14.460Z,57.22
2023-04-28T17:35:41.063Z,57.19
2023-04-28T17:38:07.665Z,57.81
2023-04-28T17:40:34.293Z,57.70
2023-04-28T17:43:00.877Z,58.14
2023-04-28T17:45:27.465Z,57.96
2023-04-28T17:47:54.144Z,57.37
2023-04-28T17:50:20.786Z,57.64
2023-04-28T17:52:47.344Z,58.68
2023-04-28T17:55:13.939Z,58.69
2023-04-28T17:57:40.531Z,59.11
2023-04-28T18:00:07.193Z,58.44
2023-04-28T18:02:33.888Z,59.01
2023-04-28T18:05:00.593Z,59.01
2023-04-28T18:07:27.244Z,59.31
2023-04-28T18:09:53.849Z,59.22
2023-04-28T18:12:20.412Z,58.81
2023-04-28T18:14:47.080Z,58.92
2023-04-28T18:17:15.699Z,59.35
2023-04-28T18:19:42.762Z,59.62
2023-04-28T18:22:09.723Z,59.49
2023-04-28T18:24:36.315Z,59.45
2023-04-28T18:27:02.931Z,59.12
2023-04-28T18:29:29.560Z,59.32
2023-04-28T18:31:56.215Z,60.21
2023-04-28T18:34:22.791Z,59.38
2023-04-28T18:36:49.568Z,59.63
2023-04-28T18:39:16.255Z,61.10
2023-04-28T18:41:43.294Z,61.30
2023-04-28T18:44:09.858Z,61.13
2023-04-28T18:46:36.614Z,60.87
2023-04-28T18:49:03.186Z,60.79
2023-04-28T18:51:29.800Z,60.52
2023-04-28T18:53:56.385Z,61.50
2023-04-28T18:56:22.986Z,61.17
2023-04-28T18:58:49.593Z,60.75
2023-04-28T19:01:16.279Z,60.79
2023-04-28T19:03:43.126Z,60.38
2023-04-28T19:06:09.781Z,60.41
2023-04-28T19:08:36.358Z,60.66
2023-04-28T19:11:02.938Z,60.97
2023-04-28T19:13:29.525Z,60.88
2023-04-28T19:15:56.160Z,61.08
2023-04-28T19:18:22.760Z,61.23
2023-04-28T19:20:49.377Z,61.28
2023-04-28T19:23:15.948Z,61.47
2023-04-28T19:25:42.755Z,60.73
2023-04-28T19:28:09.432Z,60.93
2023-04-28T19:30:36.061Z,61.45
2023-04-28T19:33:02.776Z,61.36
2023-04-28T19:35:29.436Z,61.16
2023-04-28T19:37:56.099Z,61.47
2023-04-28T19:40:22.689Z,61.93
2023-04-28T19:42:49.264Z,61.64
2023-04-28T19:45:15.934Z,61.81
2023-04-28T19:47:42.574Z,61.54
2023-04-28T19:50:09.191Z,61.36
2023-04-28T19:52:36.621Z,61.62
2023-04-28T19:55:03.210Z,61.94
2023-04-28T19:57:29.820Z,62.08
2023-04-28T19:59:56.419Z,61.99
2023-04-28T20:02:23.152Z,62.23
2023-04-28T20:04:49.837Z,63.02
2023-04-28T20:07:16.485Z,62.16
2023-04-28T20:09:43.093Z,61.96
2023-04-28T20:12:09.708Z,61.99
2023-04-28T20:14:36.277Z,61.99
2023-04-28T20:17:02.931Z,62.25
2023-04-28T20:19:29.616Z,62.21
2023-04-28T20:21:56.394Z,62.12
2023-04-28T20:24:23.028Z,62.22
2023-04-28T20:26:49.600Z,62.32
2023-04-28T20:29:16.244Z,62.16
2023-04-28T20:31:42.944Z,62.26
2023-04-28T20:34:09.702Z,64.14
2023-04-28T20:36:36.288Z,64.55
2023-04-28T20:39:02.872Z,64.04
2023-04-28T20:41:29.437Z,64.15
2023-04-28T20:43:56.027Z,63.65
2023-04-28T20:46:22.724Z,64.17
2023-04-28T20:48:49.349Z,63.36
2023-04-28T20:51:15.930Z,63.13
2023-04-28T20:53:42.522Z,63.30
2023-04-28T20:56:09.144Z,63.20
2023-04-28T20:58:35.906Z,62.91
2023-04-28T21:01:03.334Z,62.44
2023-04-28T21:03:29.999Z,61.90
2023-04-28T21:05:56.666Z,61.91
2023-04-28T21:08:23.266Z,61.44
2023-04-28T21:10:49.872Z,61.83
2023-04-28T21:13:16.935Z,61.63
2023-04-28T21:15:43.566Z,62.03
2023-04-28T21:18:10.198Z,62.90
2023-04-28T21:20:36.875Z,62.73
2023-04-28T21:23:03.650Z,62.77
2023-04-28T21:25:30.257Z,63.26
2023-04-28T21:27:57.854Z,62.55
2023-04-28T21:30:25.473Z,63.16
2023-04-28T21:32:52.168Z,63.70
2023-04-28T21:35:18.767Z,63.47
2023-04-28T21:37:45.372Z,63.48
2023-04-28T21:40:12.005Z,63.69
2023-04-28T21:42:38.637Z,63.75
2023-04-28T21:45:05.250Z,63.09
2023-04-28T21:47:31.830Z,63.90
2023-04-28T21:49:58.477Z,64.68
2023-04-28T21:52:25.063Z,64.77
2023-04-28T21:54:51.670Z,64.10
2023-04-28T21:57:18.280Z,63.55
2023-04-28T21:59:44.942Z,63.55
2023-04-28T22:02:11.556Z,63.69
2023-04-28T22:04:38.282Z,63.61
2023-04-28T22:07:04.930Z,63.16
2023-04-28T22:09:31.552Z,63.49
2023-04-28T22:11:59.539Z,63.49
2023-04-28T22:14:40.670Z,63.37
2023-04-28T22:17:08.078Z,63.05
2023-04-28T22:19:34.700Z,62.95
2023-04-28T22:22:01.279Z,63.63
2023-04-28T22:24:28.116Z,64.18
2023-04-28T22:26:54.703Z,63.73
2023-04-28T22:29:21.664Z,63.54
2023-04-28T22:31:48.384Z,63.52
2023-04-28T22:34:14.950Z,63.49
2023-04-28T22:36:41.695Z,63.15
2023-04-28T22:39:08.383Z,62.96
2023-04-28T22:41:34.973Z,63.65
2023-04-28T22:44:01.572Z,64.08
2023-04-28T22:46:28.164Z,63.95
2023-04-28T22:48:54.808Z,63.60
2023-04-28T22:51:21.425Z,63.44
2023-04-28T22:53:48.042Z,63.14
2023-04-28T22:56:14.607Z,63.03
2023-04-28T22:58:41.225Z,62.97
2023-04-28T23:01:07.827Z,64.19
2023-04-28T23:03:34.576Z,64.61
2023-04-28T23:06:01.308Z,64.82
2023-04-28T23:08:27.896Z,64.00
2023-04-28T23:10:54.513Z,64.54
2023-04-28T23:13:21.143Z,64.58
2023-04-28T23:15:47.767Z,63.94
2023-04-28T23:18:14.411Z,65.01
2023-04-28T23:20:41.159Z,65.00
2023-04-28T23:23:08.690Z,64.76
2023-04-28T23:25:36.093Z,64.82
2023-04-28T23:28:03.006Z,64.70
2023-04-28T23:30:29.663Z,64.42
2023-04-28T23:32:56.340Z,64.64
2023-04-28T23:35:23.034Z,65.00
2023-04-28T23:37:49.655Z,64.36
2023-04-28T23:40:16.217Z,65.63
2023-04-28T23:42:42.850Z,65.69
2023-04-28T23:45:09.463Z,66.21
2023-04-28T23:47:36.487Z,64.90
2023-04-28T23:50:03.206Z,64.54
2023-04-28T23:52:29.905Z,64.38
2023-04-28T23:54:56.490Z,64.44
2023-04-28T23:57:23.533Z,65.22
2023-04-28T23:59:50.346Z,65.65
